Terminal Aerodrome Forecast
Issued by NWS Boston, MA

Home | Current Version | Previous Version | Text Only | Print | Product List | Glossary Off
Versions: 1 2 3 4 5 6 7 8 9 10 11 12 13 14 15 16 17 18 19 20 21 22 23 24 25 26 27 28 29 30 31 32 33 34 35 36 37 38 39 40 41 42 43 44 45 46 47
000 FTUS41 KBOX 220030 AAA TAFBOS TAF AMD KBOS 220030Z 2201/2306 12006KT P6SM BKN015 OVC100 FM220200 12006KT 4SM -SHRA BR BKN015 FM220400 29004KT 3SM BR BKN008 FM220900 25007KT 5SM BR BKN008 FM221100 26009KT P6SM SCT008 FM221200 26010KT P6SM SCT250 FM221500 27012G24KT P6SM SCT250 FM221800 27015G24KT P6SM BKN040 FM230000 29013KT P6SM SCT250=

USA.gov is the U.S. government's official web portal to all federal, state and local government web resources and services.